Little Valley, California
Current Conditions -  °F | °C
As of 11:55 PM on Friday 28 Nov 2014 (Local Time) from KAAT Reporting Station
Overcast Overcast  
Wind Chill: 36°   Ceiling: 2800
Heat Index: 42°   Visibility: 10mi
Dew Point: 34°   Wind: 12mph
Humidity: 73%   Direction: 170°S
Pressure: 29.72"   Gusts: 21mph
Location:  40.9954°N, 121.135°W
Report Text: KAAT 290755Z AUTO 17010G18KT 10SM OVC028 06/01 A2972 RMK AO2 SLP054 T00560011 401061044
Loading
Personal Weather Stations






























Interactive Weather Map New forecast layout! Learn more

10-Day Weather Forecast

Advertisements
Track Severe Weather on mobile